createdAt,value
2023-03-26T16:06:30.724Z,6.53
2023-03-26T16:09:29.090Z,6.63
2023-03-26T16:11:58.956Z,3.08
2023-03-26T16:14:44.168Z,7.07
2023-03-26T16:17:17.404Z,3.83
2023-03-26T16:20:06.486Z,4.82
2023-03-26T16:22:46.391Z,2.22
2023-03-26T16:25:27.494Z,2.20
2023-03-26T16:28:29.983Z,3.90
2023-03-26T16:31:37.583Z,4.22
2023-03-26T16:34:22.533Z,5.22
2023-03-26T16:36:51.614Z,4.18
2023-03-26T16:39:40.835Z,4.53
2023-03-26T16:42:32.340Z,3.50
2023-03-26T16:45:12.975Z,2.92
2023-03-26T16:47:52.672Z,3.53
2023-03-26T16:50:29.984Z,1.80
2023-03-26T16:53:05.792Z,2.50
2023-03-26T16:55:43.425Z,1.23
2023-03-26T16:58:22.984Z,2.25
2023-03-26T17:00:55.772Z,1.48
2023-03-26T17:03:45.978Z,3.40
2023-03-26T17:06:34.674Z,1.50
2023-03-26T17:09:09.463Z,1.60
2023-03-26T17:11:49.883Z,4.63
2023-03-26T17:14:29.286Z,3.58
2023-03-26T17:17:24.392Z,0.88
2023-03-26T17:20:02.226Z,1.33
2023-03-26T17:22:39.324Z,3.50
2023-03-26T17:25:22.484Z,1.60
2023-03-26T17:28:07.370Z,1.55
2023-03-26T17:31:02.045Z,3.03
2023-03-26T17:33:34.693Z,3.55
2023-03-26T17:36:31.472Z,2.97
2023-03-26T17:39:43.495Z,2.55
2023-03-26T17:42:27.807Z,1.08
2023-03-26T17:44:56.534Z,1.60
2023-03-26T17:47:32.451Z,2.15
2023-03-26T17:50:05.204Z,2.92
2023-03-26T17:52:48.872Z,1.40
2023-03-26T17:55:20.114Z,1.05
2023-03-26T17:57:53.612Z,1.58
2023-03-26T18:00:24.432Z,14.55
2023-03-26T18:02:57.321Z,3.97
2023-03-26T18:05:29.007Z,1.75
2023-03-26T18:08:38.879Z,2.28
2023-03-26T18:11:33.264Z,2.38
2023-03-26T18:14:45.614Z,3.03
2023-03-26T18:17:13.657Z,2.97
2023-03-26T18:19:50.064Z,1.50
2023-03-26T18:22:23.154Z,3.88
2023-03-26T18:24:51.879Z,2.10
2023-03-26T18:27:23.289Z,2.50
2023-03-26T18:30:03.114Z,8.50
2023-03-26T18:32:33.178Z,1.85
2023-03-26T18:35:02.840Z,3.80
2023-03-26T18:37:33.363Z,1.10
2023-03-26T18:40:11.183Z,2.92
2023-03-26T18:42:40.822Z,1.85
2023-03-26T18:45:21.771Z,6.85
2023-03-26T18:47:51.420Z,0.77
2023-03-26T18:50:24.860Z,2.17
2023-03-26T18:52:52.901Z,0.75
2023-03-26T18:55:20.773Z,2.72
2023-03-26T18:57:51.707Z,2.05
2023-03-26T19:00:25.326Z,4.07
2023-03-26T19:03:02.888Z,7.15
2023-03-26T19:05:33.667Z,24.58
2023-03-26T19:08:04.841Z,9.65
2023-03-26T19:10:33.672Z,8.27
2023-03-26T19:13:03.998Z,10.23
2023-03-26T19:15:35.371Z,11.57
2023-03-26T19:18:09.679Z,14.68
2023-03-26T19:20:42.282Z,15.07
2023-03-26T19:23:15.654Z,16.45
2023-03-26T19:25:47.450Z,16.08
2023-03-26T19:28:18.659Z,16.50
2023-03-26T19:30:49.746Z,18.95
2023-03-26T19:33:21.112Z,22.25
2023-03-26T19:35:53.955Z,21.08
2023-03-26T19:38:24.747Z,24.25
2023-03-26T19:40:55.909Z,24.27
2023-03-26T19:43:24.737Z,26.48
2023-03-26T19:45:59.583Z,27.58
2023-03-26T19:48:46.548Z,28.23
2023-03-26T19:51:21.350Z,25.48
2023-03-26T19:53:54.884Z,27.77
2023-03-26T19:56:23.205Z,28.33
2023-03-26T19:58:51.613Z,32.63
2023-03-26T20:01:23.667Z,28.75
2023-03-26T20:03:54.267Z,32.72
2023-03-26T20:06:33.902Z,32.15
2023-03-26T20:09:06.212Z,31.20
2023-03-26T20:11:37.813Z,33.78
2023-03-26T20:14:13.392Z,36.28
2023-03-26T20:16:44.980Z,32.17
2023-03-26T20:19:14.335Z,38.35
2023-03-26T20:21:43.332Z,33.03
2023-03-26T20:24:14.584Z,36.47
2023-03-26T20:26:42.531Z,32.85
2023-03-26T20:29:11.600Z,32.50
2023-03-26T20:31:41.279Z,34.28
2023-03-26T20:34:17.169Z,31.92
2023-03-26T20:36:46.077Z,38.20
2023-03-26T20:39:14.679Z,40.42
2023-03-26T20:41:46.035Z,37.05
2023-03-26T20:44:16.413Z,32.55
2023-03-26T20:46:45.067Z,36.72
2023-03-26T20:49:14.915Z,36.33
2023-03-26T20:51:45.126Z,37.88
2023-03-26T20:54:21.215Z,37.63
2023-03-26T20:56:49.836Z,41.28
2023-03-26T20:59:21.938Z,38.42
2023-03-26T21:01:51.174Z,37.35
2023-03-26T21:04:21.238Z,37.45
2023-03-26T21:06:49.821Z,35.63
2023-03-26T21:09:23.589Z,36.28
2023-03-26T21:11:59.261Z,39.15
2023-03-26T21:14:31.973Z,38.08
2023-03-26T21:17:00.354Z,40.33
2023-03-26T21:19:30.234Z,41.70
2023-03-26T21:22:04.829Z,37.10
2023-03-26T21:24:49.276Z,43.67
2023-03-26T21:27:26.061Z,44.17
2023-03-26T21:29:55.063Z,44.33
2023-03-26T21:32:24.147Z,40.17
2023-03-26T21:37:25.623Z,44.40
2023-03-26T21:39:53.924Z,41.75
2023-03-26T21:42:22.373Z,40.92
2023-03-26T21:44:50.612Z,41.28
2023-03-26T21:47:18.871Z,40.42
2023-03-26T21:49:47.265Z,41.05
2023-03-26T21:52:16.919Z,45.45
2023-03-26T21:54:45.508Z,46.50
2023-03-26T21:57:30.785Z,47.80
2023-03-26T22:00:15.201Z,41.08
2023-03-26T22:02:54.084Z,48.70
2023-03-26T22:05:28.139Z,48.75
2023-03-26T22:07:59.748Z,42.88
2023-03-26T22:10:27.773Z,46.55
2023-03-26T22:12:55.649Z,48.03
2023-03-26T22:15:25.916Z,40.10
2023-03-26T22:17:55.676Z,49.05
2023-03-26T22:20:25.117Z,47.30
2023-03-26T22:22:55.088Z,46.05
2023-03-26T22:25:25.009Z,47.42
2023-03-26T22:27:53.836Z,46.95
2023-03-26T22:30:21.930Z,52.08
2023-03-26T22:32:50.332Z,49.85
2023-03-26T22:35:18.386Z,53.20
2023-03-26T22:37:47.356Z,52.33
2023-03-26T22:40:15.281Z,52.33
2023-03-26T22:42:44.513Z,50.28
2023-03-26T22:45:12.946Z,57.15
2023-03-26T22:47:41.004Z,54.92
2023-03-26T22:50:10.677Z,59.55
2023-03-26T22:52:40.554Z,62.42
2023-03-26T22:55:10.930Z,50.63
2023-03-26T22:57:38.979Z,53.65
2023-03-26T23:00:16.296Z,55.63
2023-03-26T23:02:45.852Z,63.55
2023-03-26T23:05:14.317Z,57.85
2023-03-26T23:07:42.474Z,52.70
2023-03-26T23:10:11.380Z,47.95
2023-03-26T23:12:39.349Z,36.03
